Time;durP1;ratioP1;P1;durP2;ratioP2;P2;SDS_P1;SDS_P2;PMS_P1;PMS_P2;Temp;Humidity;BMP_temperature;BMP_pressure;BME280_temperature;BME280_humidity;BME280_pressure;Samples;Min_cycle;Max_cycle;Signal;HPM_P1;HPM_P2
2022/05/05 00:01:18;;;;;;;7.07;6.47;;;;;;;10.81;100.00;99514.31;5038107;28;20217;-77
2022/05/05 00:03:46;;;;;;;6.70;6.10;;;;;;;10.83;100.00;99512.22;5055847;28;20197;-77
2022/05/05 00:06:13;;;;;;;6.00;5.40;;;;;;;10.85;100.00;99510.16;5054955;28;20304;-77
2022/05/05 00:08:40;;;;;;;6.33;5.73;;;;;;;10.88;100.00;99511.53;5038019;28;20217;-80
2022/05/05 00:16:39;;;;;;;6.47;5.90;;;;;;;10.83;100.00;99506.88;5054029;28;20201;-79
2022/05/05 00:19:07;;;;;;;9.47;6.53;;;;;;;10.82;100.00;99504.44;5054625;28;20192;-79
2022/05/05 00:21:33;;;;;;;6.57;6.00;;;;;;;10.81;100.00;99502.78;5054338;28;20182;-78
2022/05/05 00:24:00;;;;;;;6.87;6.27;;;;;;;10.77;100.00;99498.91;5037182;28;20205;-77
2022/05/05 00:26:27;;;;;;;7.10;6.40;;;;;;;10.73;100.00;99511.13;5036655;28;20186;-79
2022/05/05 00:28:54;;;;;;;6.93;6.37;;;;;;;10.69;100.00;99517.94;5037443;28;20554;-79
2022/05/05 00:31:21;;;;;;;6.90;6.30;;;;;;;10.70;100.00;99516.91;5037740;28;20206;-80
2022/05/05 00:33:48;;;;;;;7.23;6.63;;;;;;;10.73;100.00;99517.28;5037221;28;20236;-80
2022/05/05 00:36:15;;;;;;;6.63;6.13;;;;;;;10.72;100.00;99520.19;5037380;28;20271;-79
2022/05/05 00:38:42;;;;;;;6.90;6.30;;;;;;;10.67;100.00;99506.66;5037876;28;20186;-80
2022/05/05 00:41:09;;;;;;;7.00;6.33;;;;;;;10.66;100.00;99513.88;5038396;28;20209;-78
2022/05/05 00:43:36;;;;;;;7.20;6.60;;;;;;;10.62;100.00;99515.34;5055277;28;20269;-79
2022/05/05 00:46:03;;;;;;;6.80;6.20;;;;;;;10.55;100.00;99520.78;5037511;28;20241;-80
2022/05/05 00:48:31;;;;;;;7.10;6.40;;;;;;;10.59;100.00;99524.63;5021159;28;20198;-79
2022/05/05 00:50:58;;;;;;;6.37;5.87;;;;;;;10.60;100.00;99517.44;5038085;28;20488;-78
2022/05/05 00:53:25;;;;;;;6.67;6.07;;;;;;;10.60;100.00;99525.47;5037543;28;20228;-80
2022/05/05 00:55:55;;;;;;;7.20;6.50;;;;;;;10.57;100.00;99524.06;5038135;28;20257;-79
2022/05/05 00:58:23;;;;;;;6.60;6.10;;;;;;;10.60;100.00;99517.44;5038325;28;20193;-80
2022/05/05 01:00:50;;;;;;;6.83;6.13;;;;;;;10.62;100.00;99519.91;5038663;28;20475;-78
2022/05/05 01:03:18;;;;;;;6.53;6.03;;;;;;;10.65;100.00;99514.06;5038859;28;20209;-79
2022/05/05 01:05:46;;;;;;;7.30;6.63;;;;;;;10.64;100.00;99507.09;5038243;28;20219;-79
2022/05/05 01:08:14;;;;;;;6.73;6.00;;;;;;;10.68;100.00;99513.66;5055623;28;20192;-79
2022/05/05 01:10:41;;;;;;;6.90;6.30;;;;;;;10.70;100.00;99520.41;5037633;28;20197;-79
2022/05/05 01:13:08;;;;;;;6.53;6.03;;;;;;;10.68;100.00;99530.56;5054257;28;20292;-79
2022/05/05 01:15:36;;;;;;;6.60;6.00;;;;;;;10.70;100.00;99541.03;5036865;28;20208;-79
2022/05/05 01:18:03;;;;;;;6.60;6.00;;;;;;;10.67;100.00;99536.13;5038071;28;20232;-80
2022/05/05 01:20:30;;;;;;;6.97;6.37;;;;;;;10.66;100.00;99537.97;5037071;28;20639;-79
2022/05/05 01:22:57;;;;;;;7.13;6.53;;;;;;;10.59;100.00;99540.72;5037582;28;20205;-79
2022/05/05 01:28:12;;;;;;;7.80;7.10;;;;;;;10.60;100.00;99542.34;5040766;28;20178;-79
2022/05/05 01:30:41;;;;;;;7.43;6.63;;;;;;;10.54;100.00;99545.13;5037379;28;20190;-78
2022/05/05 01:33:20;;;;;;;8.33;7.53;;;;;;;10.50;100.00;99542.03;5036618;28;20233;-79
2022/05/05 01:35:49;;;;;;;7.90;7.10;;;;;;;10.48;100.00;99536.09;5055441;28;20184;-79
2022/05/05 01:38:22;;;;;;;7.67;6.97;;;;;;;10.47;100.00;99534.47;5059363;28;20194;-78
2022/05/05 01:40:49;;;;;;;8.53;7.80;;;;;;;10.45;100.00;99547.25;5041136;28;20169;-79
2022/05/05 01:43:18;;;;;;;8.57;7.87;;;;;;;10.42;100.00;99542.34;5041412;28;20573;-80
2022/05/05 01:45:46;;;;;;;7.83;7.13;;;;;;;10.39;100.00;99550.81;5040989;28;20247;-78
2022/05/05 01:48:14;;;;;;;7.67;6.97;;;;;;;10.36;100.00;99547.78;5024715;28;20193;-82
2022/05/05 01:50:40;;;;;;;7.53;6.93;;;;;;;10.35;100.00;99552.31;5040589;28;20196;-78
2022/05/05 01:53:07;;;;;;;7.90;7.30;;;;;;;10.33;100.00;99550.88;5041075;28;20826;-79
2022/05/05 01:55:36;;;;;;;7.63;7.00;;;;;;;10.21;100.00;99544.59;5041073;28;20257;-79
2022/05/05 01:58:03;;;;;;;7.93;7.17;;;;;;;10.19;100.00;99563.56;5058186;28;20206;-79
2022/05/05 02:00:33;;;;;;;8.00;7.30;;;;;;;10.12;100.00;99558.22;5024392;28;20190;-79
2022/05/05 02:03:01;;;;;;;7.40;6.70;;;;;;;10.03;100.00;99551.50;5058492;28;20279;-78
2022/05/05 02:05:28;;;;;;;7.63;6.90;;;;;;;9.99;100.00;99544.94;5041027;28;20216;-79
2022/05/05 02:07:57;;;;;;;8.10;7.30;;;;;;;9.96;100.00;99544.56;5057922;28;20185;-79
2022/05/05 02:10:24;;;;;;;7.97;7.17;;;;;;;9.91;100.00;99542.53;5040760;28;20663;-79
2022/05/05 02:12:53;;;;;;;8.00;7.20;;;;;;;9.88;100.00;99544.84;5058000;28;20569;-79
2022/05/05 02:15:20;;;;;;;7.37;6.77;;;;;;;9.83;100.00;99545.47;5024599;28;20552;-79
2022/05/05 02:17:48;;;;;;;7.60;6.90;;;;;;;9.80;100.00;99550.47;5041041;28;20277;-79
2022/05/05 02:20:15;;;;;;;7.77;7.07;;;;;;;9.78;100.00;99556.00;5055770;28;20213;-78
2022/05/05 02:22:42;;;;;;;7.50;6.80;;;;;;;9.79;100.00;99557.66;5058377;28;20182;-79
2022/05/05 02:25:09;;;;;;;7.93;7.10;;;;;;;9.80;100.00;99556.59;5039993;28;20224;-79
2022/05/05 02:27:50;;;;;;;7.93;7.17;;;;;;;9.80;100.00;99553.13;5040338;28;20695;-79
2022/05/05 02:30:19;;;;;;;7.47;6.77;;;;;;;9.81;100.00;99552.06;5057207;28;20213;-79
2022/05/05 02:32:47;;;;;;;8.37;7.57;;;;;;;9.82;100.00;99551.03;5040651;28;20198;-79
2022/05/05 02:35:14;;;;;;;7.97;7.27;;;;;;;9.82;100.00;99551.03;5039278;28;20217;-79
2022/05/05 02:40:27;;;;;;;8.07;7.37;;;;;;;9.84;100.00;99562.38;5042697;28;20243;-79
2022/05/05 02:42:55;;;;;;;7.77;7.07;;;;;;;9.82;100.00;99551.03;5057951;28;20209;-78
2022/05/05 02:45:22;;;;;;;8.27;7.57;;;;;;;9.83;100.00;99552.69;5040094;28;20528;-79
2022/05/05 02:47:50;;;;;;;8.30;7.50;;;;;;;9.81;100.00;99554.75;5039747;28;20189;-80
2022/05/05 02:50:18;;;;;;;9.03;8.23;;;;;;;9.81;100.00;99557.41;5039695;28;20288;-81
2022/05/05 02:52:46;;;;;;;8.17;7.47;;;;;;;9.78;100.00;99553.34;5022838;28;20585;-76
2022/05/05 02:55:13;;;;;;;9.03;8.13;;;;;;;9.79;100.00;99559.50;5057454;28;20185;-79
2022/05/05 02:57:40;;;;;;;8.40;7.60;;;;;;;9.78;100.00;99555.19;5040372;28;20181;-79
2022/05/05 03:00:11;;;;;;;8.67;7.97;;;;;;;9.75;100.00;99556.47;5056966;28;20210;-79
2022/05/05 03:02:40;;;;;;;8.70;7.90;;;;;;;9.71;100.00;99555.22;5040072;28;20174;-78
2022/05/05 03:05:13;;;;;;;8.77;7.87;;;;;;;9.65;100.00;99556.09;5023541;28;20192;-77
2022/05/05 03:07:41;;;;;;;8.47;7.70;;;;;;;9.66;100.00;99565.75;5039589;28;20236;-79
2022/05/05 03:10:09;;;;;;;8.33;7.63;;;;;;;9.58;100.00;99553.47;5023214;28;20216;-81
2022/05/05 03:12:36;;;;;;;8.57;7.70;;;;;;;9.58;100.00;99560.66;5039434;28;20213;-79
2022/05/05 03:15:06;;;;;;;8.23;7.43;;;;;;;9.57;100.00;99569.72;5040876;28;20224;-79
2022/05/05 03:17:34;;;;;;;8.43;7.70;;;;;;;9.56;100.00;99560.06;5040647;28;20249;-78
2022/05/05 03:20:03;;;;;;;8.23;7.40;;;;;;;9.50;100.00;99575.13;5039300;28;20197;-79
2022/05/05 03:22:30;;;;;;;8.07;7.37;;;;;;;9.52;100.00;99574.88;5040811;28;20221;-78
2022/05/05 03:24:57;;;;;;;8.50;7.80;;;;;;;9.51;100.00;99571.41;5057202;28;20220;-81
2022/05/05 03:27:24;;;;;;;8.50;7.80;;;;;;;9.47;100.00;99569.38;5023651;28;20190;-79
2022/05/05 03:29:50;;;;;;;9.20;8.30;;;;;;;9.49;100.00;99565.44;5056908;28;20597;-78
2022/05/05 03:32:18;;;;;;;8.43;7.73;;;;;;;9.46;100.00;99573.91;5041249;28;20201;-80
2022/05/05 03:34:44;;;;;;;8.37;7.67;;;;;;;9.45;100.00;99574.94;5060103;28;20221;-78
2022/05/05 03:37:11;;;;;;;9.07;8.27;;;;;;;9.42;100.00;99578.03;5022989;28;20251;-78
2022/05/05 03:39:38;;;;;;;8.23;7.47;;;;;;;9.44;100.00;99577.81;5040819;28;20209;-79
2022/05/05 03:42:06;;;;;;;9.00;8.30;;;;;;;9.46;100.00;99578.44;5039201;28;20185;-78
2022/05/05 03:44:36;;;;;;;9.50;8.70;;;;;;;9.49;100.00;99586.00;5040240;28;20574;-79
2022/05/05 03:47:05;;;;;;;9.63;8.83;;;;;;;9.54;100.00;99594.22;5038719;28;20228;-79
2022/05/05 03:49:32;;;;;;;9.03;8.20;;;;;;;9.57;100.00;99599.94;5039355;28;20189;-79
2022/05/05 03:52:00;;;;;;;9.17;8.37;;;;;;;9.63;100.00;99599.09;5057181;28;20598;-80
2022/05/05 03:54:27;;;;;;;9.60;8.80;;;;;;;9.66;100.00;99601.34;5057868;28;20209;-79
2022/05/05 03:56:53;;;;;;;9.37;8.67;;;;;;;9.70;100.00;99599.09;5039468;28;20508;-78
2022/05/05 03:59:22;;;;;;;9.03;8.17;;;;;;;9.73;100.00;99602.16;5056676;28;20487;-78
2022/05/05 04:01:49;;;;;;;9.40;8.60;;;;;;;9.72;100.00;99597.00;5056964;28;20196;-79
2022/05/05 04:04:17;;;;;;;9.13;8.33;;;;;;;9.72;100.00;99597.81;5038068;28;20647;-78
2022/05/05 04:06:44;;;;;;;9.57;8.67;;;;;;;9.77;100.00;99599.03;5039094;28;20186;-80
2022/05/05 04:09:12;;;;;;;9.67;8.77;;;;;;;9.71;100.00;99595.34;5038664;28;20613;-80
2022/05/05 04:11:41;;;;;;;10.23;9.33;;;;;;;9.70;100.00;99599.09;5038608;28;20189;-78
2022/05/05 04:14:08;;;;;;;9.37;8.57;;;;;;;9.70;100.00;99605.22;5037743;28;20223;-79
2022/05/05 04:16:35;;;;;;;9.23;8.37;;;;;;;9.70;100.00;99607.91;5038736;28;20182;-79
2022/05/05 04:19:04;;;;;;;9.10;8.30;;;;;;;9.73;100.00;99607.50;5038995;28;20228;-78
2022/05/05 04:21:31;;;;;;;9.43;8.53;;;;;;;9.73;100.00;99602.16;5039845;28;20181;-80
2022/05/05 04:24:00;;;;;;;8.77;7.97;;;;;;;9.76;100.00;99605.41;5038791;28;20188;-78
2022/05/05 04:26:29;;;;;;;9.40;8.60;;;;;;;9.81;100.00;99598.38;5056814;28;20185;-79
2022/05/05 04:28:59;;;;;;;8.90;8.00;;;;;;;9.85;100.00;99609.47;5058274;28;20200;-79
2022/05/05 04:31:31;;;;;;;10.73;8.30;;;;;;;9.92;100.00;99612.94;5041859;28;20181;-79
2022/05/05 04:33:58;;;;;;;9.33;8.43;;;;;;;9.91;100.00;99614.78;5039852;28;20194;-79
2022/05/05 04:36:25;;;;;;;9.10;8.20;;;;;;;9.94;100.00;99614.34;5038997;28;20328;-78
2022/05/05 04:38:52;;;;;;;9.47;8.67;;;;;;;10.04;100.00;99619.22;5023895;28;20613;-79
2022/05/05 04:41:19;;;;;;;9.37;8.57;;;;;;;10.17;100.00;99623.72;5039117;28;20225;-79
2022/05/05 04:43:46;;;;;;;9.67;8.77;;;;;;;10.30;100.00;99624.44;5039774;28;20186;-79
2022/05/05 04:46:14;;;;;;;9.17;8.37;;;;;;;10.37;100.00;99627.88;5039378;28;20600;-79
2022/05/05 04:48:43;;;;;;;9.30;8.40;;;;;;;10.49;100.00;99628.00;5057965;28;20189;-79
2022/05/05 04:51:10;;;;;;;9.43;8.73;;;;;;;10.59;100.00;99633.69;5039576;28;20220;-78
2022/05/05 04:53:37;;;;;;;9.73;8.83;;;;;;;10.83;100.00;99621.28;5039456;28;20304;-79
2022/05/05 04:56:05;;;;;;;9.60;8.80;;;;;;;11.06;100.00;99623.34;5040599;28;20225;-78
2022/05/05 04:58:35;;;;;;;8.73;7.93;;;;;;;11.28;100.00;99619.16;5039306;28;20186;-79
2022/05/05 05:01:03;;;;;;;8.70;8.00;;;;;;;11.49;100.00;99627.56;5038773;28;20201;-79
2022/05/05 05:03:39;;;;;;;8.23;7.47;;;;;;;11.74;100.00;99623.97;5056168;28;20220;-79
2022/05/05 05:06:08;;;;;;;7.67;6.90;;;;;;;11.96;100.00;99625.09;5056170;28;20173;-80
2022/05/05 05:08:35;;;;;;;7.43;6.70;;;;;;;12.23;100.00;99626.34;5056743;28;20646;-78
2022/05/05 05:11:02;;;;;;;7.27;6.63;;;;;;;12.30;100.00;99619.00;5041310;28;20530;-79
2022/05/05 05:13:31;;;;;;;6.90;6.30;;;;;;;12.51;100.00;99624.88;5045866;28;20185;-79
2022/05/05 05:15:58;;;;;;;6.67;6.17;;;;;;;12.72;100.00;99621.63;5063365;28;20246;-80
2022/05/05 05:18:26;;;;;;;7.70;7.00;;;;;;;12.75;100.00;99624.66;5045087;28;20177;-79
2022/05/05 05:20:53;;;;;;;7.10;6.17;;;;;;;12.95;100.00;99627.00;5045379;28;20250;-81
2022/05/05 05:23:28;;;;;;;7.33;6.10;;;;;;;13.13;100.00;99631.44;5047398;28;20512;-80
2022/05/05 05:25:58;;;;;;;6.77;6.20;;;;;;;13.18;100.00;99631.56;5043897;28;20197;-79
2022/05/05 05:28:27;;;;;;;7.20;6.13;;;;;;;13.29;100.00;99638.81;5060750;28;20243;-77
2022/05/05 05:30:54;;;;;;;6.33;5.83;;;;;;;13.52;100.00;99638.75;5060700;28;20177;-77
2022/05/05 05:33:22;;;;;;;6.63;5.77;;;;;;;13.73;100.00;99639.97;5061374;28;20221;-78
2022/05/05 05:35:49;;;;;;;6.10;5.60;;;;;;;13.97;100.00;99641.50;5043917;28;20202;-77
2022/05/05 05:38:22;;;;;;;6.47;5.87;;;;;;;14.17;100.00;99633.00;5059770;28;20247;-79
2022/05/05 05:40:48;;;;;;;6.23;5.70;;;;;;;14.30;100.00;99640.75;5043373;28;20258;-77
2022/05/05 05:43:16;;;;;;;6.30;5.70;;;;;;;14.44;100.00;99642.09;5042590;28;20190;-77
2022/05/05 05:45:42;;;;;;;6.50;5.50;;;;;;;14.66;100.00;99641.34;5042348;28;20183;-79
2022/05/05 05:48:09;;;;;;;6.43;5.87;;;;;;;14.98;100.00;99639.69;5043688;28;20189;-78
2022/05/05 05:50:37;;;;;;;6.70;6.07;;;;;;;15.17;100.00;99637.53;5059859;28;20184;-78
2022/05/05 05:53:05;;;;;;;6.87;6.17;;;;;;;15.36;100.00;99636.16;5060298;28;20219;-78
2022/05/05 05:55:32;;;;;;;6.90;6.30;;;;;;;15.49;100.00;99637.69;5042282;28;20203;-77
2022/05/05 05:57:59;;;;;;;7.70;7.00;;;;;;;15.72;100.00;99640.97;5043138;28;20543;-78
2022/05/05 06:00:26;;;;;;;10.23;9.40;;;;;;;15.72;100.00;99638.25;5043246;28;20213;-77
2022/05/05 06:05:39;;;;;;;10.57;9.50;;;;;;;16.01;100.00;99648.84;5045176;28;20182;-77
2022/05/05 06:08:06;;;;;;;10.90;9.90;;;;;;;16.06;100.00;99644.31;5059921;28;20191;-78
2022/05/05 06:10:32;;;;;;;10.20;9.30;;;;;;;16.06;100.00;99641.59;5059091;28;20264;-78
2022/05/05 06:13:00;;;;;;;10.37;9.37;;;;;;;16.21;100.00;99646.34;5041758;28;20201;-78
2022/05/05 06:15:27;;;;;;;10.33;9.30;;;;;;;16.33;100.00;99643.50;5058420;28;20264;-80
2022/05/05 06:17:54;;;;;;;9.83;9.03;;;;;;;16.36;100.00;99643.81;5040426;28;20467;-77
2022/05/05 06:20:21;;;;;;;11.07;10.13;;;;;;;16.41;100.00;99651.16;5040419;28;20367;-78
2022/05/05 06:22:50;;;;;;;11.17;10.07;;;;;;;16.39;100.00;99656.78;5055724;28;20604;-78
2022/05/05 06:25:18;;;;;;;11.53;10.53;;;;;;;16.56;100.00;99645.88;5021712;28;20526;-78
2022/05/05 06:27:45;;;;;;;10.83;9.73;;;;;;;16.60;100.00;99645.13;5037690;28;20186;-77
2022/05/05 06:30:16;;;;;;;11.00;10.10;;;;;;;16.73;100.00;99650.09;5037955;28;20189;-78
2022/05/05 06:32:44;;;;;;;11.13;10.13;;;;;;;17.04;100.00;99653.81;5021134;28;20194;-77
2022/05/05 06:35:11;;;;;;;11.17;10.17;;;;;;;17.20;100.00;99653.91;5021512;28;20660;-78
2022/05/05 06:37:38;;;;;;;10.73;9.73;;;;;;;17.17;100.00;99649.81;5037653;28;20233;-78
2022/05/05 06:40:07;;;;;;;10.10;9.20;;;;;;;17.30;100.00;99651.28;5036335;28;20438;-78
2022/05/05 06:42:34;;;;;;;10.73;9.67;;;;;;;17.40;100.00;99654.84;5037365;28;20189;-77
2022/05/05 06:45:02;;;;;;;10.20;9.30;;;;;;;17.26;100.00;99659.13;5037262;28;20568;-77
2022/05/05 06:47:29;;;;;;;11.43;10.37;;;;;;;17.51;100.00;99651.09;5038920;28;20205;-79
2022/05/05 06:49:56;;;;;;;10.67;9.87;;;;;;;17.45;100.00;99652.16;5038176;28;20333;-78
2022/05/05 06:52:23;;;;;;;9.70;8.90;;;;;;;17.46;100.00;99659.19;5021092;28;20213;-78
2022/05/05 06:55:06;;;;;;;10.63;9.63;;;;;;;17.73;100.00;99661.00;5036157;28;20559;-78
2022/05/05 06:57:33;;;;;;;10.20;8.93;;;;;;;17.88;100.00;99659.13;5054306;28;20186;-77
2022/05/05 07:00:00;;;;;;;10.27;9.00;;;;;;;18.01;100.00;99669.47;5036170;28;20243;-79
2022/05/05 07:02:27;;;;;;;11.53;9.47;;;;;;;18.26;100.00;99671.41;5054211;28;20277;-80
2022/05/05 07:07:40;;;;;;;13.73;9.10;;;;;;;18.56;100.00;99670.69;5036048;28;20220;-78
2022/05/05 07:12:53;;;;;;;9.63;8.50;;;;;;;19.00;100.00;99667.38;5035972;28;20576;-78
2022/05/05 07:15:20;;;;;;;9.33;8.43;;;;;;;19.11;100.00;99669.84;5053518;28;20273;-78
2022/05/05 07:17:47;;;;;;;10.40;9.40;;;;;;;19.22;100.00;99665.19;5036459;28;20210;-78
2022/05/05 07:20:14;;;;;;;9.53;8.73;;;;;;;19.41;100.00;99663.50;5036454;28;20183;-77
2022/05/05 07:22:41;;;;;;;10.17;9.10;;;;;;;19.55;100.00;99667.28;5036771;28;20213;-79
2022/05/05 07:25:08;;;;;;;10.20;9.17;;;;;;;19.63;100.00;99663.19;5035471;28;20283;-77
2022/05/05 07:27:36;;;;;;;10.50;9.40;;;;;;;19.67;100.00;99665.09;5036660;28;20186;-77
2022/05/05 07:30:04;;;;;;;8.93;8.03;;;;;;;19.73;100.00;99663.97;5053154;28;20261;-78
2022/05/05 07:32:31;;;;;;;8.57;7.77;;;;;;;19.84;100.00;99664.72;5036430;28;20564;-78
2022/05/05 07:34:59;;;;;;;8.30;7.60;;;;;;;19.83;100.00;99668.53;5035746;28;20200;-79
2022/05/05 07:37:26;;;;;;;8.80;7.90;;;;;;;19.82;100.00;99663.38;5035782;28;20651;-77
2022/05/05 07:39:53;;;;;;;8.77;7.97;;;;;;;19.84;100.00;99672.06;5019729;28;20616;-78
2022/05/05 07:42:20;;;;;;;8.67;7.97;;;;;;;19.89;100.00;99670.13;5053343;28;20266;-78
2022/05/05 07:44:47;;;;;;;8.50;7.80;;;;;;;19.93;100.00;99673.09;5049016;28;20264;-77
2022/05/05 07:47:14;;;;;;;8.30;7.70;;;;;;;20.03;100.00;99670.34;5037265;28;20226;-79
2022/05/05 07:49:40;;;;;;;8.63;7.93;;;;;;;19.97;100.00;99674.97;5072669;28;20272;-78
2022/05/05 07:52:07;;;;;;;8.70;7.90;;;;;;;19.98;100.00;99673.91;5054942;28;20541;-77
2022/05/05 07:54:34;;;;;;;9.23;8.43;;;;;;;19.94;100.00;99672.84;5039304;28;20207;-79
2022/05/05 07:57:12;;;;;;;8.50;7.70;;;;;;;20.01;100.00;99677.97;5038175;28;20189;-76
2022/05/05 07:59:39;;;;;;;8.87;8.00;;;;;;;20.22;100.00;99674.03;5073024;28;20225;-79
2022/05/05 08:02:13;;;;;;;8.57;7.77;;;;;;;20.16;100.00;99675.16;5054461;28;20296;-77
2022/05/05 08:04:40;;;;;;;8.13;7.43;;;;;;;20.14;100.00;99680.06;5073276;28;20226;-79
2022/05/05 08:07:07;;;;;;;10.13;7.63;;;;;;;20.12;100.00;99685.78;5055267;28;20183;-79
2022/05/05 08:09:34;;;;;;;8.47;7.67;;;;;;;20.20;100.00;99674.31;5072442;28;20215;-79
2022/05/05 08:12:20;;;;;;;8.17;7.37;;;;;;;20.22;100.00;99682.19;5044652;28;20181;-79
2022/05/05 08:14:47;;;;;;;9.77;8.90;;;;;;;20.15;100.00;99687.97;5054845;28;20234;-79
2022/05/05 08:17:15;;;;;;;7.53;6.93;;;;;;;20.18;100.00;99681.94;5073103;28;20181;-78
2022/05/05 08:19:41;;;;;;;7.67;6.93;;;;;;;20.35;100.00;99687.03;5054710;28;20223;-78
2022/05/05 08:22:08;;;;;;;7.90;7.20;;;;;;;20.36;100.00;99687.84;5054576;28;20280;-78
2022/05/05 08:30:06;;;;;;;7.23;6.67;;;;;;;20.30;100.00;99688.94;5057291;28;20656;-78
2022/05/05 08:32:33;;;;;;;6.80;6.20;;;;;;;20.15;100.00;99684.44;5055167;28;20275;-77
2022/05/05 08:35:00;;;;;;;7.37;6.77;;;;;;;20.25;100.00;99687.06;5054571;28;20264;-77
2022/05/05 08:37:27;;;;;;;6.20;5.60;;;;;;;20.22;100.00;99690.34;5038187;28;20246;-78
2022/05/05 08:39:53;;;;;;;7.17;6.33;;;;;;;20.42;100.00;99684.00;5037629;28;20233;-79
2022/05/05 08:42:21;;;;;;;6.33;5.83;;;;;;;20.57;100.00;99690.16;5038113;28;20197;-78
2022/05/05 08:44:48;;;;;;;7.57;6.30;;;;;;;20.67;100.00;99686.53;5051862;28;20198;-78
2022/05/05 08:47:17;;;;;;;8.87;6.70;;;;;;;20.61;100.00;99682.25;5037006;28;20197;-78
2022/05/05 08:49:44;;;;;;;6.50;5.80;;;;;;;20.89;100.00;99686.91;5038164;28;20526;-77
2022/05/05 08:52:12;;;;;;;5.90;5.30;;;;;;;21.05;100.00;99682.94;5038165;28;20184;-78
2022/05/05 08:54:39;;;;;;;5.30;4.80;;;;;;;20.90;100.00;99685.78;5054666;28;20192;-77
2022/05/05 08:57:06;;;;;;;5.30;4.90;;;;;;;20.95;100.00;99685.75;5037327;28;20676;-78
2022/05/05 08:59:33;;;;;;;5.63;5.10;;;;;;;20.96;98.42;99687.38;5037926;28;20219;-79
2022/05/05 09:02:00;;;;;;;4.53;4.20;;;;;;;21.04;95.22;99683.25;5053149;28;20289;-79
2022/05/05 09:04:27;;;;;;;3.90;3.60;;;;;;;21.13;90.70;99678.81;5054098;28;20434;-78
2022/05/05 09:06:56;;;;;;;3.87;3.57;;;;;;;21.27;88.72;99676.22;5054336;28;20623;-79
2022/05/05 09:09:29;;;;;;;5.20;4.70;;;;;;;21.51;90.03;99682.47;5054312;28;20214;-79
2022/05/05 09:12:12;;;;;;;4.63;4.23;;;;;;;21.77;90.34;99683.81;5037106;28;20182;-79
2022/05/05 09:14:47;;;;;;;5.93;5.33;;;;;;;21.92;90.51;99685.56;5071989;28;20177;-78
2022/05/05 09:17:26;;;;;;;6.67;5.60;;;;;;;21.78;94.30;99679.19;5053540;28;20231;-78
2022/05/05 09:19:54;;;;;;;5.83;5.33;;;;;;;21.77;92.50;99675.66;5037554;28;20544;-79
2022/05/05 09:22:25;;;;;;;5.07;4.60;;;;;;;22.00;92.27;99684.91;5038081;28;20190;-77
2022/05/05 09:24:57;;;;;;;5.30;4.80;;;;;;;22.26;88.37;99680.72;5036947;28;20630;-79
2022/05/05 09:27:34;;;;;;;4.37;3.63;;;;;;;22.39;85.38;99690.94;5053918;28;20449;-77
2022/05/05 09:30:13;;;;;;;4.07;3.30;;;;;;;22.59;79.29;99680.78;5054196;28;20258;-77
2022/05/05 09:32:42;;;;;;;3.77;3.47;;;;;;;22.45;77.85;99677.19;5054049;28;20175;-78
2022/05/05 09:35:11;;;;;;;4.03;3.63;;;;;;;22.31;77.70;99667.00;5037401;28;20305;-78
2022/05/05 09:37:43;;;;;;;4.60;4.10;;;;;;;22.50;78.74;99674.38;5071535;28;20667;-78
2022/05/05 09:40:17;;;;;;;3.77;3.47;;;;;;;22.65;80.07;99672.22;5038145;28;20179;-77
2022/05/05 09:42:49;;;;;;;3.90;3.60;;;;;;;22.76;78.00;99676.44;5037898;28;20191;-78
2022/05/05 09:45:32;;;;;;;4.20;3.80;;;;;;;22.72;76.98;99677.34;5037825;28;20174;-77
2022/05/05 09:48:01;;;;;;;3.47;3.17;;;;;;;22.93;72.82;99673.16;5037231;28;20279;-78
2022/05/05 09:50:30;;;;;;;3.13;2.88;;;;;;;23.26;72.24;99668.47;5035764;28;20220;-78
2022/05/05 09:58:38;;;;;;;6.25;3.00;;;;;;;22.97;70.19;99667.88;5073143;28;20181;-78
2022/05/05 10:01:13;;;;;;;3.30;3.00;;;;;;;22.91;66.31;99669.88;5040410;28;20211;-79
2022/05/05 10:04:06;;;;;;;2.43;2.23;;;;;;;23.15;68.84;99669.75;5041307;28;20656;-77
2022/05/05 10:06:34;;;;;;;2.38;2.17;;;;;;;;;;5057210;28;20548;-78
2022/05/05 10:09:06;;;;;;;2.20;2.03;;;;;;;23.74;59.34;99668.09;5057082;28;20183;-78
2022/05/05 10:11:33;;;;;;;2.67;2.38;;;;;;;24.00;60.18;99658.22;5057575;28;20234;-79
2022/05/05 10:14:05;;;;;;;2.95;2.63;;;;;;;24.11;60.58;99660.44;5057571;28;20181;-76
2022/05/05 10:16:32;;;;;;;3.22;2.45;;;;;;;24.17;59.14;99654.88;5056963;28;20247;-79
2022/05/05 10:18:59;;;;;;;3.47;2.30;;;;;;;24.25;58.44;99654.97;5040562;28;20185;-77
2022/05/05 10:21:27;;;;;;;3.05;2.10;;;;;;;24.21;58.81;99647.66;5040809;28;20186;-76
2022/05/05 10:24:28;;;;;;;2.70;1.75;;;;;;;23.74;54.12;99647.03;5075025;28;20227;-77
2022/05/05 10:26:57;;;;;;;2.10;1.90;;;;;;;24.19;54.97;99637.03;5040809;28;20245;-76
2022/05/05 10:29:41;;;;;;;1.70;1.60;;;;;;;24.51;52.42;99639.53;5024449;28;20646;-77
2022/05/05 10:32:18;;;;;;;2.50;1.75;;;;;;;24.71;50.30;99637.41;5057107;28;20518;-76
2022/05/05 10:34:47;;;;;;;1.98;1.88;;;;;;;24.62;49.16;99651.06;5057723;28;20272;-78
2022/05/05 10:37:18;;;;;;;1.75;1.65;;;;;;;24.77;46.73;99653.44;5057024;28;20252;-76
2022/05/05 10:39:58;;;;;;;2.50;1.50;;;;;;;25.08;43.44;99644.44;5057002;28;20608;-77
2022/05/05 10:42:45;;;;;;;1.90;1.80;;;;;;;25.41;42.04;99646.53;5057359;28;20226;-76
2022/05/05 10:45:19;;;;;;;1.70;1.60;;;;;;;25.47;43.07;99638.16;5040092;28;20212;-78
2022/05/05 10:47:55;;;;;;;2.75;1.73;;;;;;;25.75;43.08;99639.56;5057061;28;20553;-77
2022/05/05 10:50:31;;;;;;;2.38;2.28;;;;;;;25.74;44.43;99637.94;5074137;28;20563;-77
2022/05/05 10:53:00;;;;;;;3.38;2.20;;;;;;;25.73;45.12;99639.88;5056810;28;20637;-75
2022/05/05 10:55:42;;;;;;;3.10;2.90;;;;;;;25.75;46.41;99636.81;5056625;28;20260;-77
2022/05/05 10:58:58;;;;;;;3.22;2.42;;;;;;;26.04;44.62;99639.75;5059415;28;20183;-77
2022/05/05 11:01:26;;;;;;;2.60;2.40;;;;;;;26.07;43.71;99638.31;5040145;28;20216;-76
2022/05/05 11:04:11;;;;;;;4.20;2.47;;;;;;;26.16;44.62;99645.44;5039879;28;20183;-76
2022/05/05 11:06:42;;;;;;;2.85;2.60;;;;;;;25.89;44.44;99645.72;5056210;28;20198;-77
2022/05/05 11:09:09;;;;;;;3.00;2.50;;;;;;;25.70;45.75;99642.44;5056084;28;20215;-77
2022/05/05 11:11:41;;;;;;;2.67;2.42;;;;;;;25.59;45.25;99647.41;5056554;28;20180;-77
2022/05/05 11:23:08;;;;;;;2.80;2.10;;;;;;;26.21;40.58;99645.31;5041955;28;20258;-78
2022/05/05 11:25:42;;;;;;;2.80;2.60;;;;;;;26.17;40.79;99643.50;5039380;28;20205;-77
2022/05/05 11:28:09;;;;;;;2.40;2.20;;;;;;;26.64;39.53;99645.25;5055925;28;20574;-77
2022/05/05 11:30:36;;;;;;;3.22;2.90;;;;;;;26.84;37.97;99646.53;5056218;28;20219;-76
2022/05/05 11:33:05;;;;;;;2.75;2.55;;;;;;;27.05;38.05;99646.69;5039569;28;20184;-77
2022/05/05 11:35:52;;;;;;;3.10;2.20;;;;;;;27.40;37.27;99644.59;5040510;28;20213;-77
2022/05/05 11:38:21;;;;;;;2.60;2.40;;;;;;;27.63;37.02;99640.47;5056053;28;20683;-78
2022/05/05 11:41:01;;;;;;;2.42;2.22;;;;;;;27.81;36.86;99641.19;5055709;28;20220;-78
2022/05/05 11:46:16;;;;;;;3.35;2.40;;;;;;;28.12;35.71;99649.91;5041146;28;20185;-78
2022/05/05 11:48:43;;;;;;;2.10;2.00;;;;;;;28.31;34.30;99657.72;5022257;28;20241;-78
2022/05/05 11:51:11;;;;;;;3.65;2.25;;;;;;;28.63;33.99;99645.91;5053793;28;20280;-76
2022/05/05 11:53:38;;;;;;;2.10;1.95;;;;;;;28.70;33.63;99648.09;5073231;28;20525;-77
2022/05/05 11:56:11;;;;;;;2.53;2.03;;;;;;;28.93;33.28;99643.06;5055445;28;20654;-78
2022/05/05 12:01:42;;;;;;;2.20;2.08;;;;;;;29.16;33.22;99639.53;5057653;28;20249;-78
2022/05/05 12:04:10;;;;;;;2.47;2.20;;;;;;;28.99;33.81;99631.47;5054795;28;20645;-77
2022/05/05 12:06:39;;;;;;;2.58;2.38;;;;;;;29.30;32.58;99625.47;5055636;28;20181;-76
2022/05/05 12:09:09;;;;;;;3.13;1.98;;;;;;;29.35;33.64;99629.94;5054998;28;20569;-78
2022/05/05 12:11:36;;;;;;;2.22;1.98;;;;;;;29.70;31.73;99623.59;5039010;28;20414;-76
2022/05/05 12:14:09;;;;;;;2.17;2.03;;;;;;;30.05;31.83;99625.91;5055286;28;20212;-76
2022/05/05 12:16:37;;;;;;;2.45;2.20;;;;;;;30.07;31.72;99620.81;5039118;28;20304;-78
2022/05/05 12:19:17;;;;;;;2.10;2.00;;;;;;;30.05;31.72;99625.91;5054886;28;20192;-77
2022/05/05 12:22:04;;;;;;;3.53;2.10;;;;;;;29.73;31.18;99622.09;5057262;28;20173;-76
2022/05/05 12:24:31;;;;;;;6.15;1.83;;;;;;;29.62;32.58;99624.53;5054887;28;20216;-77